PWSweather.com
Personal Weather Stations
Station Observations
KVAGLENALL
West Henrico, Glen Allen, VA 23060-6503

West HenricoGlen Allen, VA 23060-6503

Lat: 37.6554, Lon: -77.5693

Elevation: 273

Station Type: Davis Vantage Pro II

Latest ConditionsUpdated 5:45:17 AM EDT Sunday, May 1, 2016
Currently Today's Max Today's Min Today's Average
Temperature 53.0°F11.7°C 55.2°F12.9°C 53.0°F11.7°C 54.4°F12.4°C
Dew Point 51.9°F11.1°C 52.0°F11.1°C 51.0°F10.6°C 51.6°F10.9°C
Winds 2.0 mph SE3.2 kmh SE 5.0 mph SE8.0 kmh SE - 0.6 mph 1.0 kmh
Wind Gusts 6.1 mph9.8 kmh 13.1 mph21.1 kmh - -
Humidity 96% 96% 86% 90%
Pressure 30.14 in1020.7 mb 30.18 in1022.0 mb 30.14 in1020.7 mb -
Hour Temp Dew Point Humidity Winds Wind Gusts Pressure Precip Precip Rate Daily Precip Total
05:45 AM 53.0°F11.7°C 51.9°F11.1°C 96% 2.0 mph SE3.2 kmh SE 6.1 mph9.8 kmh 30.14 in1020.7 mb 0.21 in5.3 mm 0.00 in0.0 mm 0.22 in5.6 mm
05:30 AM 53.2°F11.8°C 51.8°F11.0°C 95% Calm Calm -- 30.15 in1021.0 mb 0.22 in5.6 mm 0.04 in1.0 mm 0.22 in5.6 mm
05:15 AM 53.2°F11.8°C 51.8°F11.0°C 95% Calm Calm 1.0 mph1.6 kmh 30.15 in1021.0 mb 0.21 in5.3 mm 0.08 in2.0 mm 0.21 in5.3 mm
05:00 AM 53.2°F11.8°C 51.8°F11.0°C 95% Calm Calm 2.0 mph3.2 kmh 30.15 in1021.0 mb 0.19 in4.8 mm 0.01 in0.3 mm 0.19 in4.8 mm
04:45 AM 53.3°F11.8°C 51.9°F11.1°C 95% Calm Calm -- 30.15 in1021.0 mb 0.18 in4.6 mm 0.08 in2.0 mm 0.18 in4.6 mm
04:30 AM 53.7°F12.1°C 52.0°F11.1°C 94% 3.0 mph SE4.8 kmh SE 5.1 mph8.2 kmh 30.15 in1021.0 mb 0.16 in4.1 mm 0.28 in7.1 mm 0.16 in4.1 mm
04:15 AM 54.0°F12.2°C 52.0°F11.1°C 93% Calm Calm 3.0 mph4.8 kmh 30.17 in1021.7 mb 0.09 in2.3 mm 0.12 in3.0 mm 0.09 in2.3 mm
04:00 AM 54.2°F12.3°C 51.9°F11.1°C 92% Calm Calm -- 30.16 in1021.3 mb 0.06 in1.5 mm 0.04 in1.0 mm 0.06 in1.5 mm
03:45 AM 54.2°F12.3°C 51.9°F11.1°C 92% Calm Calm -- 30.17 in1021.7 mb 0.03 in0.8 mm 0.08 in2.0 mm 0.03 in0.8 mm
03:30 AM 54.5°F12.5°C 51.6°F10.9°C 90% Calm Calm -- 30.17 in1021.7 mb 0.01 in0.3 mm 0.04 in1.0 mm 0.01 in0.3 mm
03:15 AM 54.5°F12.5°C 51.3°F10.7°C 89% Calm Calm -- 30.17 in1021.7 mb 0.00 in0.0 mm 0.00 in0.0 mm 0.00 in0.0 mm
03:00 AM 54.5°F12.5°C 51.3°F10.7°C 89% Calm Calm 1.0 mph1.6 kmh 30.16 in1021.3 mb 0.00 in0.0 mm 0.00 in0.0 mm 0.00 in0.0 mm
02:45 AM 54.6°F12.6°C 51.4°F10.8°C 89% Calm Calm -- 30.15 in1021.0 mb 0.00 in0.0 mm 0.00 in0.0 mm 0.00 in0.0 mm
02:30 AM 54.6°F12.6°C 51.4°F10.8°C 89% Calm Calm 1.0 mph1.6 kmh 30.15 in1021.0 mb 0.00 in0.0 mm 0.00 in0.0 mm 0.00 in0.0 mm
02:15 AM 54.8°F12.7°C 51.6°F10.9°C 89% Calm Calm 1.0 mph1.6 kmh 30.16 in1021.3 mb 0.00 in0.0 mm 0.00 in0.0 mm 0.00 in0.0 mm
02:00 AM 54.8°F12.7°C 51.3°F10.7°C 88% Calm Calm 3.0 mph4.8 kmh 30.17 in1021.7 mb 0.00 in0.0 mm 0.00 in0.0 mm 0.00 in0.0 mm
01:45 AM 54.9°F12.7°C 51.4°F10.8°C 88% Calm Calm 3.0 mph4.8 kmh 30.17 in1021.7 mb 0.00 in0.0 mm 0.00 in0.0 mm 0.00 in0.0 mm
01:30 AM 55.1°F12.8°C 51.3°F10.7°C 87% Calm Calm 2.0 mph3.2 kmh 30.17 in1021.7 mb 0.00 in0.0 mm 0.00 in0.0 mm 0.00 in0.0 mm
01:15 AM 55.1°F12.8°C 51.0°F10.6°C 86% Calm Calm 1.0 mph1.6 kmh 30.18 in1022.0 mb 0.00 in0.0 mm 0.00 in0.0 mm 0.00 in0.0 mm
01:00 AM 55.1°F12.8°C 51.0°F10.6°C 86% 2.0 mph ESE3.2 kmh ESE 5.1 mph8.2 kmh 30.17 in1021.7 mb 0.00 in0.0 mm 0.00 in0.0 mm 0.00 in0.0 mm
12:45 AM 55.1°F12.8°C 51.3°F10.7°C 87% 5.0 mph SE8.0 kmh SE 13.1 mph21.1 kmh 30.17 in1021.7 mb 0.00 in0.0 mm 0.00 in0.0 mm 0.00 in0.0 mm
12:30 AM 55.2°F12.9°C 51.7°F10.9°C 88% Calm Calm 12.1 mph19.5 kmh 30.17 in1021.7 mb 0.00 in0.0 mm 0.00 in0.0 mm 0.00 in0.0 mm
12:15 AM 55.2°F12.9°C 51.7°F10.9°C 88% Calm Calm 4.0 mph6.4 kmh 30.18 in1022.0 mb 0.00 in0.0 mm 0.00 in0.0 mm 0.00 in0.0 mm
12:00 AM 55.2°F12.9°C 52.0°F11.1°C 89% 2.0 mph E3.2 kmh E 5.1 mph8.2 kmh 30.18 in1022.0 mb 0.00 in0.0 mm 0.00 in0.0 mm 0.00 in0.0 mm